TJNR/NRR METAR and TAF weather

Enter ICAO airport designator
Station Type Date Time Source
TJNR METAR 2022/01/19 18:53 UTC NOAA

TJNR 191853Z AUTO 11010KT 10SM CLR 28/22 A3007 RMK AO2 SLP184 T02830222


Station Type Date Time Source
TJNR Decoded METAR 2022/01/19 18:53 UTC NOAA

ROOSEVELT ROADS PUERTO RICO, PR, United States (TJNR) 18-15N 65-38W 10M
Jan 19, 2022 - 01:53 PM EST / 2022.01.19 1853 UTC
Wind: from the ESE (110 degrees) at 12 MPH (10 KT):0
Visibility: 10 mile(s):0
Sky conditions: clear
Temperature: 82.9 F (28.3 C)
Dew Point: 72.0 F (22.2 C)
Relative Humidity: 69%
Pressure (altimeter): 30.07 in. Hg (1018 hPa)
ob: TJNR 191853Z AUTO 11010KT 10SM CLR 28/22 A3007 RMK AO2 SLP184 T02830222
cycle: 19

Station Type Date Time Source
TJNR TAF UTC NOAA

Error!

Example: see airport list